sensor_id;sensor_type;location;lat;lon;timestamp;temperature;humidity
20233;DHT22;37438;55.674;13.074;2022-12-07T00:01:31;1.70;99.90
20233;DHT22;37438;55.674;13.074;2022-12-07T00:05:16;1.80;99.90
20233;DHT22;37438;55.674;13.074;2022-12-07T00:08:43;1.80;99.90
20233;DHT22;37438;55.674;13.074;2022-12-07T00:12:05;1.90;99.90
20233;DHT22;37438;55.674;13.074;2022-12-07T00:15:23;1.90;99.90
20233;DHT22;37438;55.674;13.074;2022-12-07T00:18:55;1.90;99.90
20233;DHT22;37438;55.674;13.074;2022-12-07T00:22:23;1.70;99.90
20233;DHT22;37438;55.674;13.074;2022-12-07T00:25:53;2.10;99.90
20233;DHT22;37438;55.674;13.074;2022-12-07T00:29:40;2.10;99.90
20233;DHT22;37438;55.674;13.074;2022-12-07T00:32:55;2.30;99.90
20233;DHT22;37438;55.674;13.074;2022-12-07T00:36:15;2.40;99.90
20233;DHT22;37438;55.674;13.074;2022-12-07T00:39:39;2.50;99.90
20233;DHT22;37438;55.674;13.074;2022-12-07T00:43:02;2.40;99.90
20233;DHT22;37438;55.674;13.074;2022-12-07T00:46:18;2.40;99.90
20233;DHT22;37438;55.674;13.074;2022-12-07T00:49:32;2.40;99.90
20233;DHT22;37438;55.674;13.074;2022-12-07T00:52:53;2.70;99.90
20233;DHT22;37438;55.674;13.074;2022-12-07T00:56:11;2.60;99.90
20233;DHT22;37438;55.674;13.074;2022-12-07T00:59:40;2.60;99.90
20233;DHT22;37438;55.674;13.074;2022-12-07T01:03:04;2.70;99.90
20233;DHT22;37438;55.674;13.074;2022-12-07T01:06:34;2.60;99.90
20233;DHT22;37438;55.674;13.074;2022-12-07T01:10:04;2.50;99.90
20233;DHT22;37438;55.674;13.074;2022-12-07T01:13:18;2.30;99.90
20233;DHT22;37438;55.674;13.074;2022-12-07T01:21:07;2.10;99.90
20233;DHT22;37438;55.674;13.074;2022-12-07T01:24:31;2.10;99.90
20233;DHT22;37438;55.674;13.074;2022-12-07T01:32:08;2.00;99.90
20233;DHT22;37438;55.674;13.074;2022-12-07T01:35:24;2.00;99.90
20233;DHT22;37438;55.674;13.074;2022-12-07T01:38:49;1.90;99.90
20233;DHT22;37438;55.674;13.074;2022-12-07T01:42:07;1.90;99.90
20233;DHT22;37438;55.674;13.074;2022-12-07T01:53:14;1.90;99.90
20233;DHT22;37438;55.674;13.074;2022-12-07T01:56:20;1.80;99.90
20233;DHT22;37438;55.674;13.074;2022-12-07T01:59:29;1.80;99.90
20233;DHT22;37438;55.674;13.074;2022-12-07T02:02:37;1.90;99.90
20233;DHT22;37438;55.674;13.074;2022-12-07T02:05:43;1.80;99.90
20233;DHT22;37438;55.674;13.074;2022-12-07T02:08:51;1.50;99.90
20233;DHT22;37438;55.674;13.074;2022-12-07T02:12:03;1.70;99.90
20233;DHT22;37438;55.674;13.074;2022-12-07T02:15:08;1.70;99.90
20233;DHT22;37438;55.674;13.074;2022-12-07T02:44:07;1.40;99.90
20233;DHT22;37438;55.674;13.074;2022-12-07T02:47:14;1.40;99.90
20233;DHT22;37438;55.674;13.074;2022-12-07T02:50:22;1.30;99.90
20233;DHT22;37438;55.674;13.074;2022-12-07T02:56:46;1.30;99.90
20233;DHT22;37438;55.674;13.074;2022-12-07T03:00:21;1.30;99.90
20233;DHT22;37438;55.674;13.074;2022-12-07T03:03:51;1.20;99.90
20233;DHT22;37438;55.674;13.074;2022-12-07T03:11:09;1.20;99.90
20233;DHT22;37438;55.674;13.074;2022-12-07T03:14:41;1.20;99.90
20233;DHT22;37438;55.674;13.074;2022-12-07T03:31:31;1.10;99.90
20233;DHT22;37438;55.674;13.074;2022-12-07T03:34:42;1.20;99.90
20233;DHT22;37438;55.674;13.074;2022-12-07T03:37:52;1.00;99.90
20233;DHT22;37438;55.674;13.074;2022-12-07T03:41:05;1.00;99.90
20233;DHT22;37438;55.674;13.074;2022-12-07T03:44:10;0.90;99.90
20233;DHT22;37438;55.674;13.074;2022-12-07T03:47:32;0.90;99.90
20233;DHT22;37438;55.674;13.074;2022-12-07T03:50:43;0.80;99.90
20233;DHT22;37438;55.674;13.074;2022-12-07T03:53:49;0.80;99.90
20233;DHT22;37438;55.674;13.074;2022-12-07T03:56:55;0.80;99.90
20233;DHT22;37438;55.674;13.074;2022-12-07T04:00:00;0.80;99.90
20233;DHT22;37438;55.674;13.074;2022-12-07T04:03:15;0.70;99.90
20233;DHT22;37438;55.674;13.074;2022-12-07T04:06:21;0.60;99.90
20233;DHT22;37438;55.674;13.074;2022-12-07T04:09:25;0.60;99.90
20233;DHT22;37438;55.674;13.074;2022-12-07T04:12:31;0.70;99.90
20233;DHT22;37438;55.674;13.074;2022-12-07T04:15:35;0.60;99.90
20233;DHT22;37438;55.674;13.074;2022-12-07T04:18:41;0.60;99.90
20233;DHT22;37438;55.674;13.074;2022-12-07T04:21:46;0.50;99.90
20233;DHT22;37438;55.674;13.074;2022-12-07T04:24:50;0.50;99.90
20233;DHT22;37438;55.674;13.074;2022-12-07T04:27:54;0.50;99.90
20233;DHT22;37438;55.674;13.074;2022-12-07T04:30:59;0.40;99.90
20233;DHT22;37438;55.674;13.074;2022-12-07T04:34:04;0.50;99.90
20233;DHT22;37438;55.674;13.074;2022-12-07T04:37:09;0.40;99.90
20233;DHT22;37438;55.674;13.074;2022-12-07T04:40:14;0.40;99.90
20233;DHT22;37438;55.674;13.074;2022-12-07T04:43:18;0.40;99.90
20233;DHT22;37438;55.674;13.074;2022-12-07T04:46:24;0.40;99.90
20233;DHT22;37438;55.674;13.074;2022-12-07T04:49:29;0.30;99.90
20233;DHT22;37438;55.674;13.074;2022-12-07T04:52:34;0.30;99.90
20233;DHT22;37438;55.674;13.074;2022-12-07T04:55:39;0.20;99.90
20233;DHT22;37438;55.674;13.074;2022-12-07T04:58:44;0.20;99.90
20233;DHT22;37438;55.674;13.074;2022-12-07T05:01:51;0.10;99.90
20233;DHT22;37438;55.674;13.074;2022-12-07T05:04:55;0.00;99.90
20233;DHT22;37438;55.674;13.074;2022-12-07T05:08:00;0.00;99.90
20233;DHT22;37438;55.674;13.074;2022-12-07T05:11:05;-0.10;99.90
20233;DHT22;37438;55.674;13.074;2022-12-07T05:14:12;-0.10;99.90
20233;DHT22;37438;55.674;13.074;2022-12-07T05:17:17;-0.20;99.90
20233;DHT22;37438;55.674;13.074;2022-12-07T05:20:22;-0.20;99.90
20233;DHT22;37438;55.674;13.074;2022-12-07T05:23:26;-0.20;99.90
20233;DHT22;37438;55.674;13.074;2022-12-07T05:26:31;-0.30;99.90
20233;DHT22;37438;55.674;13.074;2022-12-07T05:29:36;-0.30;99.90
20233;DHT22;37438;55.674;13.074;2022-12-07T05:32:42;-0.30;99.90
20233;DHT22;37438;55.674;13.074;2022-12-07T05:35:46;-0.50;99.90
20233;DHT22;37438;55.674;13.074;2022-12-07T05:38:51;-0.10;99.90
20233;DHT22;37438;55.674;13.074;2022-12-07T05:41:57;-0.20;99.90
20233;DHT22;37438;55.674;13.074;2022-12-07T05:45:19;-0.10;99.90
20233;DHT22;37438;55.674;13.074;2022-12-07T05:48:24;-0.10;99.90
20233;DHT22;37438;55.674;13.074;2022-12-07T05:51:29;-0.10;99.90
20233;DHT22;37438;55.674;13.074;2022-12-07T05:54:35;-0.20;99.90
20233;DHT22;37438;55.674;13.074;2022-12-07T05:57:40;-0.20;99.90
20233;DHT22;37438;55.674;13.074;2022-12-07T06:01:11;-0.30;99.90
20233;DHT22;37438;55.674;13.074;2022-12-07T06:04:16;-0.40;99.90
20233;DHT22;37438;55.674;13.074;2022-12-07T06:07:21;-0.40;99.90
20233;DHT22;37438;55.674;13.074;2022-12-07T06:10:31;-0.40;99.90
20233;DHT22;37438;55.674;13.074;2022-12-07T06:13:36;-0.50;99.90
20233;DHT22;37438;55.674;13.074;2022-12-07T06:16:52;-0.60;99.90
20233;DHT22;37438;55.674;13.074;2022-12-07T06:19:34;-0.60;99.90
20233;DHT22;37438;55.674;13.074;2022-12-07T06:22:54;-0.60;99.90
20233;DHT22;37438;55.674;13.074;2022-12-07T06:28:56;-0.70;99.90
20233;DHT22;37438;55.674;13.074;2022-12-07T06:31:49;-0.70;99.90
20233;DHT22;37438;55.674;13.074;2022-12-07T06:34:45;-0.70;99.90
20233;DHT22;37438;55.674;13.074;2022-12-07T06:38:09;-0.80;99.90
20233;DHT22;37438;55.674;13.074;2022-12-07T06:44:18;-0.90;99.90
20233;DHT22;37438;55.674;13.074;2022-12-07T06:47:23;-0.90;99.90
20233;DHT22;37438;55.674;13.074;2022-12-07T06:50:45;-0.90;99.90
20233;DHT22;37438;55.674;13.074;2022-12-07T06:53:57;-0.90;99.90
20233;DHT22;37438;55.674;13.074;2022-12-07T06:57:01;-0.90;99.90
20233;DHT22;37438;55.674;13.074;2022-12-07T07:00:06;-1.00;99.90
20233;DHT22;37438;55.674;13.074;2022-12-07T07:03:10;-0.90;99.90
20233;DHT22;37438;55.674;13.074;2022-12-07T07:06:14;-0.90;99.90
20233;DHT22;37438;55.674;13.074;2022-12-07T07:09:20;-1.00;99.90
20233;DHT22;37438;55.674;13.074;2022-12-07T07:12:24;-1.00;99.90
20233;DHT22;37438;55.674;13.074;2022-12-07T07:15:29;-0.90;99.90
20233;DHT22;37438;55.674;13.074;2022-12-07T07:18:34;-0.90;99.90
20233;DHT22;37438;55.674;13.074;2022-12-07T07:21:38;-0.90;99.90
20233;DHT22;37438;55.674;13.074;2022-12-07T07:24:42;-0.80;99.90
20233;DHT22;37438;55.674;13.074;2022-12-07T07:27:47;-0.90;99.90
20233;DHT22;37438;55.674;13.074;2022-12-07T07:30:52;-0.80;99.90
20233;DHT22;37438;55.674;13.074;2022-12-07T07:33:56;-0.80;99.90
20233;DHT22;37438;55.674;13.074;2022-12-07T07:37:01;-0.80;99.90
20233;DHT22;37438;55.674;13.074;2022-12-07T07:40:06;-0.90;99.90
20233;DHT22;37438;55.674;13.074;2022-12-07T07:43:10;-0.90;99.90
20233;DHT22;37438;55.674;13.074;2022-12-07T07:46:14;-0.90;99.90
20233;DHT22;37438;55.674;13.074;2022-12-07T07:49:18;-0.90;99.90
20233;DHT22;37438;55.674;13.074;2022-12-07T07:52:23;-0.90;99.90
20233;DHT22;37438;55.674;13.074;2022-12-07T07:55:28;-0.90;99.90
20233;DHT22;37438;55.674;13.074;2022-12-07T07:58:33;-0.90;99.90
20233;DHT22;37438;55.674;13.074;2022-12-07T08:01:37;-0.90;99.90
20233;DHT22;37438;55.674;13.074;2022-12-07T08:04:42;-0.90;99.90
20233;DHT22;37438;55.674;13.074;2022-12-07T08:07:46;-0.90;99.90
20233;DHT22;37438;55.674;13.074;2022-12-07T08:10:50;-1.00;99.90
20233;DHT22;37438;55.674;13.074;2022-12-07T08:13:55;-1.00;99.90
20233;DHT22;37438;55.674;13.074;2022-12-07T08:17:00;-1.00;99.90
20233;DHT22;37438;55.674;13.074;2022-12-07T08:20:04;-1.00;99.90
20233;DHT22;37438;55.674;13.074;2022-12-07T08:23:09;-1.00;99.90
20233;DHT22;37438;55.674;13.074;2022-12-07T08:26:14;-1.00;99.90
20233;DHT22;37438;55.674;13.074;2022-12-07T08:29:19;-1.00;99.90
20233;DHT22;37438;55.674;13.074;2022-12-07T08:32:24;-1.00;99.90
20233;DHT22;37438;55.674;13.074;2022-12-07T08:35:29;-1.00;99.90
20233;DHT22;37438;55.674;13.074;2022-12-07T08:38:34;-0.90;99.90
20233;DHT22;37438;55.674;13.074;2022-12-07T08:41:38;-0.80;99.90
20233;DHT22;37438;55.674;13.074;2022-12-07T08:44:43;-0.80;99.90
20233;DHT22;37438;55.674;13.074;2022-12-07T08:50:51;-0.80;99.90
20233;DHT22;37438;55.674;13.074;2022-12-07T08:53:56;-0.70;99.90
20233;DHT22;37438;55.674;13.074;2022-12-07T08:57:02;-0.80;99.90
20233;DHT22;37438;55.674;13.074;2022-12-07T09:00:07;-0.70;99.90
20233;DHT22;37438;55.674;13.074;2022-12-07T09:03:11;-0.60;99.90
20233;DHT22;37438;55.674;13.074;2022-12-07T09:06:16;-0.60;99.90
20233;DHT22;37438;55.674;13.074;2022-12-07T09:09:20;-0.60;99.90
20233;DHT22;37438;55.674;13.074;2022-12-07T09:12:24;-0.50;99.90
20233;DHT22;37438;55.674;13.074;2022-12-07T09:15:28;-0.40;99.90
20233;DHT22;37438;55.674;13.074;2022-12-07T09:18:32;-0.40;99.90
20233;DHT22;37438;55.674;13.074;2022-12-07T09:21:38;-0.30;99.90
20233;DHT22;37438;55.674;13.074;2022-12-07T09:24:42;-0.20;99.90
20233;DHT22;37438;55.674;13.074;2022-12-07T09:27:47;-0.10;99.90
20233;DHT22;37438;55.674;13.074;2022-12-07T09:30:51;0.30;99.90
20233;DHT22;37438;55.674;13.074;2022-12-07T09:34:16;0.70;99.90
20233;DHT22;37438;55.674;13.074;2022-12-07T09:37:20;1.20;99.90
20233;DHT22;37438;55.674;13.074;2022-12-07T09:40:25;1.20;99.90
20233;DHT22;37438;55.674;13.074;2022-12-07T09:43:29;1.90;99.90
20233;DHT22;37438;55.674;13.074;2022-12-07T09:46:38;2.20;99.90
20233;DHT22;37438;55.674;13.074;2022-12-07T09:49:43;2.50;99.90
20233;DHT22;37438;55.674;13.074;2022-12-07T09:52:48;2.60;99.90
20233;DHT22;37438;55.674;13.074;2022-12-07T09:55:53;1.70;99.90
20233;DHT22;37438;55.674;13.074;2022-12-07T09:58:59;1.20;99.90
20233;DHT22;37438;55.674;13.074;2022-12-07T10:02:22;1.00;99.90
20233;DHT22;37438;55.674;13.074;2022-12-07T10:05:32;0.70;99.90
20233;DHT22;37438;55.674;13.074;2022-12-07T10:08:38;0.60;99.90
20233;DHT22;37438;55.674;13.074;2022-12-07T10:15:06;0.90;99.90
20233;DHT22;37438;55.674;13.074;2022-12-07T10:18:17;1.00;99.90
20233;DHT22;37438;55.674;13.074;2022-12-07T10:21:26;0.90;99.90
20233;DHT22;37438;55.674;13.074;2022-12-07T10:24:33;1.00;99.90
20233;DHT22;37438;55.674;13.074;2022-12-07T10:27:40;1.00;99.90
20233;DHT22;37438;55.674;13.074;2022-12-07T10:33:53;1.20;99.90
20233;DHT22;37438;55.674;13.074;2022-12-07T10:37:15;1.40;99.90
20233;DHT22;37438;55.674;13.074;2022-12-07T10:40:34;1.60;99.90
20233;DHT22;37438;55.674;13.074;2022-12-07T10:43:49;2.00;99.90
20233;DHT22;37438;55.674;13.074;2022-12-07T10:50:29;2.50;99.90
20233;DHT22;37438;55.674;13.074;2022-12-07T10:53:47;2.10;99.90
20233;DHT22;37438;55.674;13.074;2022-12-07T10:57:32;1.80;99.90
20233;DHT22;37438;55.674;13.074;2022-12-07T11:00:31;1.80;99.90
20233;DHT22;37438;55.674;13.074;2022-12-07T11:16:41;1.40;99.90
20233;DHT22;37438;55.674;13.074;2022-12-07T11:26:34;1.20;99.90
20233;DHT22;37438;55.674;13.074;2022-12-07T11:29:46;1.20;99.90
20233;DHT22;37438;55.674;13.074;2022-12-07T11:32:57;1.00;99.90
20233;DHT22;37438;55.674;13.074;2022-12-07T11:36:17;1.00;99.90
20233;DHT22;37438;55.674;13.074;2022-12-07T11:39:38;0.90;99.90
20233;DHT22;37438;55.674;13.074;2022-12-07T11:43:09;0.90;99.90
20233;DHT22;37438;55.674;13.074;2022-12-07T11:46:09;0.90;99.90
20233;DHT22;37438;55.674;13.074;2022-12-07T11:52:36;0.90;99.90
20233;DHT22;37438;55.674;13.074;2022-12-07T11:55:51;0.90;99.90
20233;DHT22;37438;55.674;13.074;2022-12-07T11:58:57;0.90;99.90
20233;DHT22;37438;55.674;13.074;2022-12-07T12:02:14;0.90;99.90
20233;DHT22;37438;55.674;13.074;2022-12-07T12:05:23;0.90;99.90
20233;DHT22;37438;55.674;13.074;2022-12-07T12:12:54;0.70;99.90
20233;DHT22;37438;55.674;13.074;2022-12-07T12:16:37;0.60;99.90
20233;DHT22;37438;55.674;13.074;2022-12-07T12:20:00;0.80;99.90
20233;DHT22;37438;55.674;13.074;2022-12-07T12:26:22;0.80;99.90
20233;DHT22;37438;55.674;13.074;2022-12-07T12:29:36;0.80;99.90
20233;DHT22;37438;55.674;13.074;2022-12-07T12:32:42;0.70;99.90
20233;DHT22;37438;55.674;13.074;2022-12-07T12:39:16;0.80;99.90
20233;DHT22;37438;55.674;13.074;2022-12-07T12:42:42;0.80;99.90
20233;DHT22;37438;55.674;13.074;2022-12-07T12:58:47;1.00;99.90
20233;DHT22;37438;55.674;13.074;2022-12-07T13:08:24;1.20;99.90
20233;DHT22;37438;55.674;13.074;2022-12-07T13:11:40;1.20;99.90
20233;DHT22;37438;55.674;13.074;2022-12-07T13:18:00;1.30;99.90
20233;DHT22;37438;55.674;13.074;2022-12-07T13:24:12;1.20;99.90
20233;DHT22;37438;55.674;13.074;2022-12-07T13:27:18;1.20;99.90
20233;DHT22;37438;55.674;13.074;2022-12-07T13:30:23;1.20;99.90
20233;DHT22;37438;55.674;13.074;2022-12-07T13:33:29;1.20;99.90
20233;DHT22;37438;55.674;13.074;2022-12-07T13:36:38;1.10;99.90
20233;DHT22;37438;55.674;13.074;2022-12-07T13:39:45;1.00;99.90
20233;DHT22;37438;55.674;13.074;2022-12-07T13:42:58;0.90;99.90
20233;DHT22;37438;55.674;13.074;2022-12-07T13:49:19;0.80;99.90
20233;DHT22;37438;55.674;13.074;2022-12-07T13:55:30;0.80;99.90
20233;DHT22;37438;55.674;13.074;2022-12-07T13:58:35;0.80;99.90
20233;DHT22;37438;55.674;13.074;2022-12-07T14:01:40;0.70;99.90
20233;DHT22;37438;55.674;13.074;2022-12-07T14:04:44;0.70;99.90
20233;DHT22;37438;55.674;13.074;2022-12-07T14:11:03;0.60;99.90
20233;DHT22;37438;55.674;13.074;2022-12-07T14:14:20;0.50;99.90
20233;DHT22;37438;55.674;13.074;2022-12-07T14:17:26;0.40;99.90
20233;DHT22;37438;55.674;13.074;2022-12-07T14:20:38;0.30;99.90
20233;DHT22;37438;55.674;13.074;2022-12-07T14:24:01;0.30;99.90
20233;DHT22;37438;55.674;13.074;2022-12-07T14:27:15;0.30;99.90
20233;DHT22;37438;55.674;13.074;2022-12-07T14:30:25;0.20;99.90
20233;DHT22;37438;55.674;13.074;2022-12-07T14:33:30;0.10;99.90
20233;DHT22;37438;55.674;13.074;2022-12-07T14:36:34;0.10;99.90
20233;DHT22;37438;55.674;13.074;2022-12-07T14:39:39;0.10;99.90
20233;DHT22;37438;55.674;13.074;2022-12-07T14:42:43;0.10;99.90
20233;DHT22;37438;55.674;13.074;2022-12-07T14:45:48;0.10;99.90
20233;DHT22;37438;55.674;13.074;2022-12-07T14:48:53;0.00;99.90
20233;DHT22;37438;55.674;13.074;2022-12-07T14:52:21;0.00;99.90
20233;DHT22;37438;55.674;13.074;2022-12-07T14:55:45;-0.10;99.90
20233;DHT22;37438;55.674;13.074;2022-12-07T14:58:50;-0.20;99.90
20233;DHT22;37438;55.674;13.074;2022-12-07T15:01:54;-0.20;99.90
20233;DHT22;37438;55.674;13.074;2022-12-07T15:04:58;-0.20;99.90
20233;DHT22;37438;55.674;13.074;2022-12-07T15:08:04;-0.20;99.90
20233;DHT22;37438;55.674;13.074;2022-12-07T15:11:12;-0.20;99.90
20233;DHT22;37438;55.674;13.074;2022-12-07T15:14:17;-0.30;99.90
20233;DHT22;37438;55.674;13.074;2022-12-07T15:17:21;-0.30;99.90
20233;DHT22;37438;55.674;13.074;2022-12-07T15:20:35;-0.30;99.90
20233;DHT22;37438;55.674;13.074;2022-12-07T15:23:39;-0.30;99.90
20233;DHT22;37438;55.674;13.074;2022-12-07T15:26:43;-0.30;99.90
20233;DHT22;37438;55.674;13.074;2022-12-07T15:29:47;-0.40;99.90
20233;DHT22;37438;55.674;13.074;2022-12-07T15:32:52;-0.40;99.90
20233;DHT22;37438;55.674;13.074;2022-12-07T15:35:58;-0.30;99.90
20233;DHT22;37438;55.674;13.074;2022-12-07T15:39:02;-0.30;99.90
20233;DHT22;37438;55.674;13.074;2022-12-07T15:42:22;-0.30;99.90
20233;DHT22;37438;55.674;13.074;2022-12-07T15:45:26;-0.40;99.90
20233;DHT22;37438;55.674;13.074;2022-12-07T15:48:31;-0.40;99.90
20233;DHT22;37438;55.674;13.074;2022-12-07T15:51:35;-0.40;99.90
20233;DHT22;37438;55.674;13.074;2022-12-07T15:54:39;-0.30;99.90
20233;DHT22;37438;55.674;13.074;2022-12-07T15:57:44;-0.30;99.90
20233;DHT22;37438;55.674;13.074;2022-12-07T16:00:48;-0.30;99.90
20233;DHT22;37438;55.674;13.074;2022-12-07T16:03:53;-0.30;99.90
20233;DHT22;37438;55.674;13.074;2022-12-07T16:06:58;-0.40;99.90
20233;DHT22;37438;55.674;13.074;2022-12-07T16:10:04;-0.30;99.90
20233;DHT22;37438;55.674;13.074;2022-12-07T16:13:09;-0.40;99.90
20233;DHT22;37438;55.674;13.074;2022-12-07T16:16:10;-0.40;99.90
20233;DHT22;37438;55.674;13.074;2022-12-07T16:19:25;-0.30;99.90
20233;DHT22;37438;55.674;13.074;2022-12-07T16:22:27;-0.60;99.90
20233;DHT22;37438;55.674;13.074;2022-12-07T16:25:31;-0.40;99.90
20233;DHT22;37438;55.674;13.074;2022-12-07T16:28:37;-0.40;99.90
20233;DHT22;37438;55.674;13.074;2022-12-07T17:00:08;-0.50;99.90
20233;DHT22;37438;55.674;13.074;2022-12-07T18:31:40;-0.60;99.90
20233;DHT22;37438;55.674;13.074;2022-12-07T20:41:01;-1.00;99.90
20233;DHT22;37438;55.674;13.074;2022-12-07T20:43:59;-1.00;99.90
20233;DHT22;37438;55.674;13.074;2022-12-07T20:47:10;-1.00;99.90
20233;DHT22;37438;55.674;13.074;2022-12-07T20:56:25;-1.00;99.90
20233;DHT22;37438;55.674;13.074;2022-12-07T20:59:31;-1.00;99.90
20233;DHT22;37438;55.674;13.074;2022-12-07T21:11:48;-1.20;99.90
20233;DHT22;37438;55.674;13.074;2022-12-07T22:19:30;-2.30;99.90
20233;DHT22;37438;55.674;13.074;2022-12-07T22:25:38;-2.40;99.90
20233;DHT22;37438;55.674;13.074;2022-12-07T22:28:43;-2.40;99.90
20233;DHT22;37438;55.674;13.074;2022-12-07T22:31:48;-2.50;99.90
20233;DHT22;37438;55.674;13.074;2022-12-07T22:34:56;-2.50;99.90
20233;DHT22;37438;55.674;13.074;2022-12-07T22:38:01;-2.60;99.90
20233;DHT22;37438;55.674;13.074;2022-12-07T22:41:09;-2.60;99.90
20233;DHT22;37438;55.674;13.074;2022-12-07T22:44:13;-2.70;99.90
20233;DHT22;37438;55.674;13.074;2022-12-07T22:47:17;-2.60;99.90
20233;DHT22;37438;55.674;13.074;2022-12-07T22:50:22;-2.70;99.90
20233;DHT22;37438;55.674;13.074;2022-12-07T22:53:26;-2.70;99.90
20233;DHT22;37438;55.674;13.074;2022-12-07T22:56:31;-2.80;99.90
20233;DHT22;37438;55.674;13.074;2022-12-07T22:59:35;-2.80;99.90
20233;DHT22;37438;55.674;13.074;2022-12-07T23:02:40;-2.90;99.90
20233;DHT22;37438;55.674;13.074;2022-12-07T23:05:46;-2.90;99.90
20233;DHT22;37438;55.674;13.074;2022-12-07T23:08:51;-2.90;99.90
20233;DHT22;37438;55.674;13.074;2022-12-07T23:11:55;-2.90;99.90
20233;DHT22;37438;55.674;13.074;2022-12-07T23:15:18;-3.00;99.90
20233;DHT22;37438;55.674;13.074;2022-12-07T23:18:22;-3.10;99.90
20233;DHT22;37438;55.674;13.074;2022-12-07T23:21:27;-3.20;99.90
20233;DHT22;37438;55.674;13.074;2022-12-07T23:24:31;-3.30;99.90
20233;DHT22;37438;55.674;13.074;2022-12-07T23:27:35;-3.30;99.90
20233;DHT22;37438;55.674;13.074;2022-12-07T23:30:40;-3.30;99.90
20233;DHT22;37438;55.674;13.074;2022-12-07T23:33:44;-3.30;99.90
20233;DHT22;37438;55.674;13.074;2022-12-07T23:36:48;-3.30;99.90
20233;DHT22;37438;55.674;13.074;2022-12-07T23:39:53;-3.30;99.90
20233;DHT22;37438;55.674;13.074;2022-12-07T23:42:57;-3.40;99.90
20233;DHT22;37438;55.674;13.074;2022-12-07T23:46:02;-3.50;99.90
20233;DHT22;37438;55.674;13.074;2022-12-07T23:49:07;-3.70;99.90
20233;DHT22;37438;55.674;13.074;2022-12-07T23:52:11;-3.70;99.90
20233;DHT22;37438;55.674;13.074;2022-12-07T23:55:15;-3.60;99.90
20233;DHT22;37438;55.674;13.074;2022-12-07T23:58:20;-3.60;99.90
